メインページ
METAR-TAF:

METAR-TAF

空港 :

ナジャフ, イラク

緯度: 31-59-23N, 経度: 44-24-15E, 海抜: 31m

現時点の気象観測

当レポートは16分前の17:00(UTC)に作成
無風
気温 31°C
湿度 16%
気圧 1007 hPa
視程: 6000m

METAR: ORNI 251700Z 00000KT 6000 NSC 31/02 Q1007 NOSIG

時間: 20:16 (17:16 UTC)

予報

当レポートは7時間16分前の10:00(UTC)に作成
予報は25日の 12時(UTC)から 26日の 12時(UTC)まで有効
西/北西の風 10kt
視程: 7000m

TAF: ORNI 251000Z 2512/2612 30010KT 7000 NSC

4,000以上の空港の気象観測と天気予報(METAR報とTAF報)

利用可能な観測所は地図上に黄色い丸と赤い丸で示す。

丸の上にカーソルを重ねると観測所名を参照できる。

次にクリックすると気象観測と天気予報を参照できる。

マップの切り替え:黒色「×」印の緑ボタンをクリックして拡大、「-」印の緑ボタンをクリックして縮小、緑色の三角印をクリックして隣りの地図に切り替え


METAR-TAF: